PWSweather.com
Personal Weather Stations
Station Observations
RODOLIVOS
Serres, Rodolivos SerresGR 62041

SerresRodolivos SerresGR 62041

Lat: 40.920725, Lon: 23.975814

Elevation: 1161

Station Type: Davis Vantage Vue

http://rodolivos-weather.gr/

Latest ConditionsUpdated 12:50:00 PM GMT+02:02 Wednesday, Dec 12, 2018
Currently Today's Max Today's Min Today's Average
Temperature 43.6°F6.4°C 44.6°F7.0°C 29.9°F-1.2°C 36.8°F2.7°C
Dew Point 24.2°F-4.3°C 24.6°F-4.1°C 18.1°F-7.7°C 21.7°F-5.7°C
Winds 1.2 mph S1.9 kmh S 4.6 mph -7.4 kmh - - 1.0 mph 1.6 kmh
Wind Gusts 2.3 mph3.7 kmh 5.8 mph9.3 kmh - -
Humidity 46% 64% 44% 54%
Pressure 30.07 in1018.3 mb 30.09 in1019.0 mb 30.02 in1016.6 mb -
Hour Temp Dew Point Humidity Winds Wind Gusts Pressure Precip Precip Rate Daily Precip Total
12:50 PM 43.6°F6.4°C 24.2°F-4.3°C 46% 1.2 mph S1.9 kmh S 2.3 mph3.7 kmh 30.07 in1018.3 mb - 0.00 in0.0 mm 0.00 in0.0 mm
12:40 PM 43.9°F6.6°C 23.9°F-4.5°C 45% 1.2 mph SSE1.9 kmh SSE 1.2 mph1.9 kmh 30.07 in1018.3 mb - 0.00 in0.0 mm 0.00 in0.0 mm
12:30 PM 44.6°F7.0°C 24.0°F-4.4°C 44% 1.2 mph NW1.9 kmh NW 3.5 mph5.6 kmh 30.07 in1018.3 mb - 0.00 in0.0 mm 0.00 in0.0 mm
12:20 PM 44.0°F6.7°C 24.6°F-4.1°C 46% Calm Calm 3.5 mph5.6 kmh 30.07 in1018.3 mb - 0.00 in0.0 mm 0.00 in0.0 mm
12:10 PM 43.6°F6.4°C 24.2°F-4.3°C 46% Calm Calm 2.3 mph3.7 kmh 30.07 in1018.3 mb - 0.00 in0.0 mm 0.00 in0.0 mm
12:00 PM 43.2°F6.2°C 23.8°F-4.6°C 46% 1.2 mph W1.9 kmh W 3.5 mph5.6 kmh 30.07 in1018.3 mb - 0.00 in0.0 mm 0.00 in0.0 mm
11:50 AM 42.8°F6.0°C 24.4°F-4.2°C 48% Calm Calm 1.2 mph1.9 kmh 30.07 in1018.3 mb - 0.00 in0.0 mm 0.00 in0.0 mm
11:40 AM 42.8°F6.0°C 23.9°F-4.5°C 47% 1.2 mph W1.9 kmh W 3.5 mph5.6 kmh 30.08 in1018.6 mb - 0.00 in0.0 mm 0.00 in0.0 mm
11:30 AM 41.9°F5.5°C 23.6°F-4.7°C 48% Calm Calm 1.2 mph1.9 kmh 30.08 in1018.6 mb - 0.00 in0.0 mm 0.00 in0.0 mm
11:20 AM 41.9°F5.5°C 23.6°F-4.7°C 48% 2.3 mph W3.7 kmh W 4.6 mph7.4 kmh 30.08 in1018.6 mb - 0.00 in0.0 mm 0.00 in0.0 mm
11:10 AM 41.7°F5.4°C 23.4°F-4.8°C 48% 1.2 mph S1.9 kmh S 2.3 mph3.7 kmh 30.08 in1018.6 mb - 0.00 in0.0 mm 0.00 in0.0 mm
11:00 AM 41.1°F5.1°C 23.4°F-4.8°C 49% 1.2 mph S1.9 kmh S 3.5 mph5.6 kmh 30.09 in1019.0 mb - 0.00 in0.0 mm 0.00 in0.0 mm
10:50 AM 40.8°F4.9°C 23.6°F-4.7°C 50% 1.2 mph S1.9 kmh S 3.5 mph5.6 kmh 30.09 in1019.0 mb - 0.00 in0.0 mm 0.00 in0.0 mm
10:40 AM 39.5°F4.2°C 22.9°F-5.1°C 51% Calm Calm 2.3 mph3.7 kmh 30.09 in1019.0 mb - 0.00 in0.0 mm 0.00 in0.0 mm
10:30 AM 38.8°F3.8°C 22.6°F-5.2°C 52% 2.3 mph S3.7 kmh S 3.5 mph5.6 kmh 30.09 in1019.0 mb - 0.00 in0.0 mm 0.00 in0.0 mm
10:20 AM 38.7°F3.7°C 22.6°F-5.2°C 52% 2.3 mph SSW3.7 kmh SSW 3.5 mph5.6 kmh 30.09 in1019.0 mb - 0.00 in0.0 mm 0.00 in0.0 mm
10:10 AM 38.9°F3.8°C 22.7°F-5.2°C 52% 1.2 mph SSE1.9 kmh SSE 3.5 mph5.6 kmh 30.09 in1019.0 mb - 0.00 in0.0 mm 0.00 in0.0 mm
10:00 AM 38.5°F3.6°C 22.8°F-5.1°C 53% 1.2 mph SW1.9 kmh SW 3.5 mph5.6 kmh 30.08 in1018.6 mb - 0.00 in0.0 mm 0.00 in0.0 mm
09:50 AM 38.2°F3.4°C 22.5°F-5.3°C 53% 2.3 mph SSW3.7 kmh SSW 4.6 mph7.4 kmh 30.08 in1018.6 mb - 0.00 in0.0 mm 0.00 in0.0 mm
09:40 AM 36.9°F2.7°C 21.8°F-5.7°C 54% 2.3 mph SSE3.7 kmh SSE 3.5 mph5.6 kmh 30.07 in1018.3 mb - 0.00 in0.0 mm 0.00 in0.0 mm
09:30 AM 35.9°F2.2°C 22.1°F-5.5°C 57% 1.2 mph SE1.9 kmh SE 3.5 mph5.6 kmh 30.07 in1018.3 mb - 0.00 in0.0 mm 0.00 in0.0 mm
09:20 AM 35.4°F1.9°C 21.7°F-5.7°C 57% 4.6 mph S7.4 kmh S 5.8 mph9.3 kmh 30.07 in1018.3 mb - 0.00 in0.0 mm 0.00 in0.0 mm
09:10 AM 35.3°F1.8°C 21.2°F-6.0°C 56% 1.2 mph S1.9 kmh S 2.3 mph3.7 kmh 30.07 in1018.3 mb - 0.00 in0.0 mm 0.00 in0.0 mm
09:00 AM 31.9°F-0.1°C 20.4°F-6.4°C 62% Calm Calm -- 30.06 in1017.9 mb - 0.00 in0.0 mm 0.00 in0.0 mm
08:50 AM 31.2°F-0.4°C 20.1°F-6.6°C 63% Calm Calm -- 30.06 in1017.9 mb - 0.00 in0.0 mm 0.00 in0.0 mm
08:40 AM 31.0°F-0.6°C 20.2°F-6.6°C 64% Calm Calm 1.2 mph1.9 kmh 30.06 in1017.9 mb - 0.00 in0.0 mm 0.00 in0.0 mm
08:30 AM 30.8°F-0.7°C 20.0°F-6.7°C 64% 2.3 mph S3.7 kmh S 3.5 mph5.6 kmh 30.05 in1017.6 mb - 0.00 in0.0 mm 0.00 in0.0 mm
08:20 AM 30.7°F-0.7°C 20.0°F-6.7°C 64% 1.2 mph S1.9 kmh S 2.3 mph3.7 kmh 30.05 in1017.6 mb - 0.00 in0.0 mm 0.00 in0.0 mm
08:10 AM 30.3°F-0.9°C 18.1°F-7.7°C 60% Calm Calm 2.3 mph3.7 kmh 30.05 in1017.6 mb - 0.00 in0.0 mm 0.00 in0.0 mm
08:00 AM 30.4°F-0.9°C 18.2°F-7.7°C 60% Calm Calm -- 30.04 in1017.3 mb - 0.00 in0.0 mm 0.00 in0.0 mm
07:50 AM 30.3°F-0.9°C 18.8°F-7.3°C 62% Calm Calm 1.2 mph1.9 kmh 30.04 in1017.3 mb - 0.00 in0.0 mm 0.00 in0.0 mm
07:40 AM 30.0°F-1.1°C 18.6°F-7.4°C 62% Calm Calm 2.3 mph3.7 kmh 30.04 in1017.3 mb - 0.00 in0.0 mm 0.00 in0.0 mm
07:30 AM 30.0°F-1.1°C 18.9°F-7.3°C 63% 1.2 mph E1.9 kmh E 2.3 mph3.7 kmh 30.04 in1017.3 mb - 0.00 in0.0 mm 0.00 in0.0 mm
07:20 AM 29.9°F-1.2°C 18.8°F-7.3°C 63% Calm Calm 1.2 mph1.9 kmh 30.04 in1017.3 mb - 0.00 in0.0 mm 0.00 in0.0 mm
07:10 AM 30.5°F-0.8°C 19.0°F-7.2°C 62% Calm Calm -- 30.03 in1016.9 mb - 0.00 in0.0 mm 0.00 in0.0 mm
07:00 AM 31.4°F-0.3°C 18.7°F-7.4°C 59% Calm Calm -- 30.03 in1016.9 mb - 0.00 in0.0 mm 0.00 in0.0 mm
06:50 AM 31.8°F-0.1°C 18.7°F-7.4°C 58% 2.3 mph E3.7 kmh E 3.5 mph5.6 kmh 30.02 in1016.6 mb - 0.00 in0.0 mm 0.00 in0.0 mm